sensor_id;sensor_type;location;lat;lon;timestamp;temperature;humidity
871;DHT22;422;51.280;7.236;2022-12-11T00:00:00;0.00;99.90
871;DHT22;422;51.280;7.236;2022-12-11T00:02:28;0.00;99.90
871;DHT22;422;51.280;7.236;2022-12-11T00:04:55;0.00;99.90
871;DHT22;422;51.280;7.236;2022-12-11T00:07:24;0.00;99.90
871;DHT22;422;51.280;7.236;2022-12-11T00:09:51;-0.10;99.90
871;DHT22;422;51.280;7.236;2022-12-11T00:12:18;0.00;99.90
871;DHT22;422;51.280;7.236;2022-12-11T00:14:46;0.00;99.90
871;DHT22;422;51.280;7.236;2022-12-11T00:17:13;0.00;99.90
871;DHT22;422;51.280;7.236;2022-12-11T00:19:40;-0.10;99.90
871;DHT22;422;51.280;7.236;2022-12-11T00:22:07;-0.10;99.90
871;DHT22;422;51.280;7.236;2022-12-11T00:24:36;-0.10;99.90
871;DHT22;422;51.280;7.236;2022-12-11T00:27:03;-0.10;99.90
871;DHT22;422;51.280;7.236;2022-12-11T00:29:30;-0.20;99.90
871;DHT22;422;51.280;7.236;2022-12-11T00:31:57;-0.10;99.90
871;DHT22;422;51.280;7.236;2022-12-11T00:34:25;-0.10;99.90
871;DHT22;422;51.280;7.236;2022-12-11T00:36:52;-0.20;99.90
871;DHT22;422;51.280;7.236;2022-12-11T00:39:19;-0.30;99.90
871;DHT22;422;51.280;7.236;2022-12-11T00:41:48;-0.30;99.90
871;DHT22;422;51.280;7.236;2022-12-11T00:44:15;-0.30;99.90
871;DHT22;422;51.280;7.236;2022-12-11T00:46:42;-0.30;99.90
871;DHT22;422;51.280;7.236;2022-12-11T00:49:09;-0.30;99.90
871;DHT22;422;51.280;7.236;2022-12-11T00:51:36;-0.30;99.90
871;DHT22;422;51.280;7.236;2022-12-11T00:54:04;-0.30;99.90
871;DHT22;422;51.280;7.236;2022-12-11T00:56:33;-0.30;99.90
871;DHT22;422;51.280;7.236;2022-12-11T00:59:02;-0.40;99.90
871;DHT22;422;51.280;7.236;2022-12-11T01:01:29;-0.30;99.90
871;DHT22;422;51.280;7.236;2022-12-11T01:03:56;-0.30;99.90
871;DHT22;422;51.280;7.236;2022-12-11T01:06:24;-0.20;99.90
871;DHT22;422;51.280;7.236;2022-12-11T01:08:52;-0.20;99.90
871;DHT22;422;51.280;7.236;2022-12-11T01:11:41;-0.30;99.90
871;DHT22;422;51.280;7.236;2022-12-11T01:14:09;-0.20;99.90
871;DHT22;422;51.280;7.236;2022-12-11T01:16:37;-0.20;99.90
871;DHT22;422;51.280;7.236;2022-12-11T01:19:04;-0.20;99.90
871;DHT22;422;51.280;7.236;2022-12-11T01:21:31;-0.20;99.90
871;DHT22;422;51.280;7.236;2022-12-11T01:23:59;-0.20;99.90
871;DHT22;422;51.280;7.236;2022-12-11T01:26:26;-0.20;99.90
871;DHT22;422;51.280;7.236;2022-12-11T01:28:54;-0.10;99.90
871;DHT22;422;51.280;7.236;2022-12-11T01:31:22;-0.20;99.90
871;DHT22;422;51.280;7.236;2022-12-11T01:33:52;-0.10;99.90
871;DHT22;422;51.280;7.236;2022-12-11T01:36:21;-0.20;99.90
871;DHT22;422;51.280;7.236;2022-12-11T01:38:48;-0.20;99.90
871;DHT22;422;51.280;7.236;2022-12-11T01:41:16;-0.20;99.90
871;DHT22;422;51.280;7.236;2022-12-11T01:44:02;-0.20;99.90
871;DHT22;422;51.280;7.236;2022-12-11T01:46:33;-0.10;99.90
871;DHT22;422;51.280;7.236;2022-12-11T01:49:02;-0.10;99.90
871;DHT22;422;51.280;7.236;2022-12-11T01:51:33;-0.10;99.90
871;DHT22;422;51.280;7.236;2022-12-11T01:54:04;-0.20;99.90
871;DHT22;422;51.280;7.236;2022-12-11T01:56:35;-0.30;99.90
871;DHT22;422;51.280;7.236;2022-12-11T01:59:04;-0.20;99.90
871;DHT22;422;51.280;7.236;2022-12-11T02:01:36;-0.10;99.90
871;DHT22;422;51.280;7.236;2022-12-11T02:04:06;-0.10;99.90
871;DHT22;422;51.280;7.236;2022-12-11T02:06:36;-0.10;99.90
871;DHT22;422;51.280;7.236;2022-12-11T02:09:05;-0.10;99.90
871;DHT22;422;51.280;7.236;2022-12-11T02:11:39;-0.10;99.90
871;DHT22;422;51.280;7.236;2022-12-11T02:14:12;-0.20;99.90
871;DHT22;422;51.280;7.236;2022-12-11T02:16:48;-0.20;99.90
871;DHT22;422;51.280;7.236;2022-12-11T02:19:23;-0.20;99.90
871;DHT22;422;51.280;7.236;2022-12-11T02:21:55;-0.10;99.90
871;DHT22;422;51.280;7.236;2022-12-11T02:24:46;-0.10;99.90
871;DHT22;422;51.280;7.236;2022-12-11T02:27:26;-0.20;99.90
871;DHT22;422;51.280;7.236;2022-12-11T02:30:00;0.00;99.90
871;DHT22;422;51.280;7.236;2022-12-11T02:32:32;-0.10;99.90
871;DHT22;422;51.280;7.236;2022-12-11T02:35:05;-0.10;99.90
871;DHT22;422;51.280;7.236;2022-12-11T02:37:36;-0.10;99.90
871;DHT22;422;51.280;7.236;2022-12-11T02:40:07;0.00;99.90
871;DHT22;422;51.280;7.236;2022-12-11T02:42:39;0.00;99.90
871;DHT22;422;51.280;7.236;2022-12-11T02:45:10;-0.10;99.90
871;DHT22;422;51.280;7.236;2022-12-11T02:47:38;-0.10;99.90
871;DHT22;422;51.280;7.236;2022-12-11T02:50:09;0.00;99.90
871;DHT22;422;51.280;7.236;2022-12-11T02:52:38;-0.10;99.90
871;DHT22;422;51.280;7.236;2022-12-11T02:55:08;-0.10;99.90
871;DHT22;422;51.280;7.236;2022-12-11T02:57:38;-0.10;99.90
871;DHT22;422;51.280;7.236;2022-12-11T03:00:11;0.00;99.90
871;DHT22;422;51.280;7.236;2022-12-11T03:02:39;0.00;99.90
871;DHT22;422;51.280;7.236;2022-12-11T03:05:08;0.10;99.90
871;DHT22;422;51.280;7.236;2022-12-11T03:07:38;0.10;99.90
871;DHT22;422;51.280;7.236;2022-12-11T03:10:08;0.10;99.90
871;DHT22;422;51.280;7.236;2022-12-11T03:12:38;0.10;99.90
871;DHT22;422;51.280;7.236;2022-12-11T03:15:10;0.10;99.90
871;DHT22;422;51.280;7.236;2022-12-11T03:17:46;0.10;99.90
871;DHT22;422;51.280;7.236;2022-12-11T03:20:21;0.00;99.90
871;DHT22;422;51.280;7.236;2022-12-11T03:22:54;0.00;99.90
871;DHT22;422;51.280;7.236;2022-12-11T03:25:29;-0.10;99.90
871;DHT22;422;51.280;7.236;2022-12-11T03:28:04;0.00;99.90
871;DHT22;422;51.280;7.236;2022-12-11T03:30:35;-0.10;99.90
871;DHT22;422;51.280;7.236;2022-12-11T03:33:06;0.00;99.90
871;DHT22;422;51.280;7.236;2022-12-11T03:35:38;-0.10;99.90
871;DHT22;422;51.280;7.236;2022-12-11T03:38:09;-0.10;99.90
871;DHT22;422;51.280;7.236;2022-12-11T03:40:39;0.00;99.90
871;DHT22;422;51.280;7.236;2022-12-11T03:43:10;-0.10;99.90
871;DHT22;422;51.280;7.236;2022-12-11T03:45:39;-0.10;99.90
871;DHT22;422;51.280;7.236;2022-12-11T03:48:08;0.00;99.90
871;DHT22;422;51.280;7.236;2022-12-11T03:50:36;0.00;99.90
871;DHT22;422;51.280;7.236;2022-12-11T03:53:04;-0.10;99.90
871;DHT22;422;51.280;7.236;2022-12-11T03:55:32;-0.10;99.90
871;DHT22;422;51.280;7.236;2022-12-11T03:57:59;-0.10;99.90
871;DHT22;422;51.280;7.236;2022-12-11T04:00:27;-0.10;99.90
871;DHT22;422;51.280;7.236;2022-12-11T04:02:56;0.00;99.90
871;DHT22;422;51.280;7.236;2022-12-11T04:05:39;0.00;99.90
871;DHT22;422;51.280;7.236;2022-12-11T04:08:06;0.00;99.90
871;DHT22;422;51.280;7.236;2022-12-11T04:10:34;0.10;99.90
871;DHT22;422;51.280;7.236;2022-12-11T04:13:01;0.00;99.90
871;DHT22;422;51.280;7.236;2022-12-11T04:15:28;0.00;99.90
871;DHT22;422;51.280;7.236;2022-12-11T04:17:56;-0.10;99.90
871;DHT22;422;51.280;7.236;2022-12-11T04:20:40;0.00;99.90
871;DHT22;422;51.280;7.236;2022-12-11T04:23:25;0.00;99.90
871;DHT22;422;51.280;7.236;2022-12-11T04:26:11;0.00;99.90
871;DHT22;422;51.280;7.236;2022-12-11T04:28:40;-0.10;99.90
871;DHT22;422;51.280;7.236;2022-12-11T04:31:11;0.00;99.90
871;DHT22;422;51.280;7.236;2022-12-11T04:33:40;0.00;99.90
871;DHT22;422;51.280;7.236;2022-12-11T04:36:08;0.00;99.90
871;DHT22;422;51.280;7.236;2022-12-11T04:38:36;0.10;99.90
871;DHT22;422;51.280;7.236;2022-12-11T04:41:05;0.10;99.90
871;DHT22;422;51.280;7.236;2022-12-11T04:43:33;0.00;99.90
871;DHT22;422;51.280;7.236;2022-12-11T04:46:01;0.00;99.90
871;DHT22;422;51.280;7.236;2022-12-11T04:48:29;0.00;99.90
871;DHT22;422;51.280;7.236;2022-12-11T04:50:58;0.00;99.90
871;DHT22;422;51.280;7.236;2022-12-11T04:53:25;0.00;99.90
871;DHT22;422;51.280;7.236;2022-12-11T04:55:53;0.00;99.90
871;DHT22;422;51.280;7.236;2022-12-11T04:58:20;0.00;99.90
871;DHT22;422;51.280;7.236;2022-12-11T05:00:48;0.00;99.90
871;DHT22;422;51.280;7.236;2022-12-11T05:03:15;0.00;99.90
871;DHT22;422;51.280;7.236;2022-12-11T05:05:47;0.00;99.90
871;DHT22;422;51.280;7.236;2022-12-11T05:08:16;0.00;99.90
871;DHT22;422;51.280;7.236;2022-12-11T05:10:44;0.00;99.90
871;DHT22;422;51.280;7.236;2022-12-11T05:13:11;0.10;99.90
871;DHT22;422;51.280;7.236;2022-12-11T05:15:38;0.10;99.90
871;DHT22;422;51.280;7.236;2022-12-11T05:18:05;0.00;99.90
871;DHT22;422;51.280;7.236;2022-12-11T05:20:33;0.00;99.90
871;DHT22;422;51.280;7.236;2022-12-11T05:23:00;0.00;99.90
871;DHT22;422;51.280;7.236;2022-12-11T05:25:29;-0.10;99.90
871;DHT22;422;51.280;7.236;2022-12-11T05:27:56;-0.10;99.90
871;DHT22;422;51.280;7.236;2022-12-11T05:30:23;-0.10;99.90
871;DHT22;422;51.280;7.236;2022-12-11T05:32:51;-0.10;99.90
871;DHT22;422;51.280;7.236;2022-12-11T05:35:18;-0.10;99.90
871;DHT22;422;51.280;7.236;2022-12-11T05:37:45;-0.10;99.90
871;DHT22;422;51.280;7.236;2022-12-11T05:40:12;-0.10;99.90
871;DHT22;422;51.280;7.236;2022-12-11T05:42:42;-0.10;99.90
871;DHT22;422;51.280;7.236;2022-12-11T05:45:09;-0.10;99.90
871;DHT22;422;51.280;7.236;2022-12-11T05:47:37;-0.10;99.90
871;DHT22;422;51.280;7.236;2022-12-11T05:50:04;0.00;99.90
871;DHT22;422;51.280;7.236;2022-12-11T05:52:32;0.00;99.90
871;DHT22;422;51.280;7.236;2022-12-11T05:54:59;0.00;99.90
871;DHT22;422;51.280;7.236;2022-12-11T05:57:26;0.00;99.90
871;DHT22;422;51.280;7.236;2022-12-11T05:59:55;-0.10;99.90
871;DHT22;422;51.280;7.236;2022-12-11T06:02:22;0.00;99.90
871;DHT22;422;51.280;7.236;2022-12-11T06:04:49;0.00;99.90
871;DHT22;422;51.280;7.236;2022-12-11T06:07:16;0.00;99.90
871;DHT22;422;51.280;7.236;2022-12-11T06:09:44;0.00;99.90
871;DHT22;422;51.280;7.236;2022-12-11T06:12:11;0.00;99.90
871;DHT22;422;51.280;7.236;2022-12-11T06:14:38;0.10;99.90
871;DHT22;422;51.280;7.236;2022-12-11T06:17:07;0.10;99.90
871;DHT22;422;51.280;7.236;2022-12-11T06:19:34;0.10;99.90
871;DHT22;422;51.280;7.236;2022-12-11T06:22:01;0.10;99.90
871;DHT22;422;51.280;7.236;2022-12-11T06:24:29;0.10;99.90
871;DHT22;422;51.280;7.236;2022-12-11T06:26:56;0.10;99.90
871;DHT22;422;51.280;7.236;2022-12-11T06:29:23;0.10;99.90
871;DHT22;422;51.280;7.236;2022-12-11T06:31:51;0.10;99.90
871;DHT22;422;51.280;7.236;2022-12-11T06:34:19;0.10;99.90
871;DHT22;422;51.280;7.236;2022-12-11T06:36:46;0.10;99.90
871;DHT22;422;51.280;7.236;2022-12-11T06:39:13;0.10;99.90
871;DHT22;422;51.280;7.236;2022-12-11T06:41:41;0.10;99.90
871;DHT22;422;51.280;7.236;2022-12-11T06:44:08;0.10;99.90
871;DHT22;422;51.280;7.236;2022-12-11T06:46:35;0.00;99.90
871;DHT22;422;51.280;7.236;2022-12-11T06:49:03;0.10;99.90
871;DHT22;422;51.280;7.236;2022-12-11T06:51:31;0.10;99.90
871;DHT22;422;51.280;7.236;2022-12-11T06:53:58;0.10;99.90
871;DHT22;422;51.280;7.236;2022-12-11T06:56:26;0.20;99.90
871;DHT22;422;51.280;7.236;2022-12-11T06:58:53;0.20;99.90
871;DHT22;422;51.280;7.236;2022-12-11T07:01:23;0.20;99.90
871;DHT22;422;51.280;7.236;2022-12-11T07:03:52;0.20;99.90
871;DHT22;422;51.280;7.236;2022-12-11T07:06:20;0.20;99.90
871;DHT22;422;51.280;7.236;2022-12-11T07:08:49;0.20;99.90
871;DHT22;422;51.280;7.236;2022-12-11T07:11:17;0.20;99.90
871;DHT22;422;51.280;7.236;2022-12-11T07:13:45;0.10;99.90
871;DHT22;422;51.280;7.236;2022-12-11T07:16:14;0.10;99.90
871;DHT22;422;51.280;7.236;2022-12-11T07:18:45;0.10;99.90
871;DHT22;422;51.280;7.236;2022-12-11T07:21:12;0.20;99.90
871;DHT22;422;51.280;7.236;2022-12-11T07:23:40;0.10;99.90
871;DHT22;422;51.280;7.236;2022-12-11T07:26:10;0.10;99.90
871;DHT22;422;51.280;7.236;2022-12-11T07:28:38;0.20;99.90
871;DHT22;422;51.280;7.236;2022-12-11T07:31:06;0.10;99.90
871;DHT22;422;51.280;7.236;2022-12-11T07:33:33;0.20;99.90
871;DHT22;422;51.280;7.236;2022-12-11T07:36:01;0.20;99.90
871;DHT22;422;51.280;7.236;2022-12-11T07:38:29;0.10;99.90
871;DHT22;422;51.280;7.236;2022-12-11T07:40:59;0.10;99.90
871;DHT22;422;51.280;7.236;2022-12-11T07:43:28;0.10;99.90
871;DHT22;422;51.280;7.236;2022-12-11T07:46:00;0.10;99.90
871;DHT22;422;51.280;7.236;2022-12-11T07:48:28;0.20;99.90
871;DHT22;422;51.280;7.236;2022-12-11T07:50:55;0.10;99.90
871;DHT22;422;51.280;7.236;2022-12-11T07:53:22;0.10;99.90
871;DHT22;422;51.280;7.236;2022-12-11T07:55:50;0.20;99.90
871;DHT22;422;51.280;7.236;2022-12-11T07:58:17;0.20;99.90
871;DHT22;422;51.280;7.236;2022-12-11T08:00:45;0.20;99.90
871;DHT22;422;51.280;7.236;2022-12-11T08:03:14;0.30;99.90
871;DHT22;422;51.280;7.236;2022-12-11T08:05:46;0.20;99.90
871;DHT22;422;51.280;7.236;2022-12-11T08:08:14;0.30;99.90
871;DHT22;422;51.280;7.236;2022-12-11T08:10:41;0.20;99.90
871;DHT22;422;51.280;7.236;2022-12-11T08:13:08;0.20;99.90
871;DHT22;422;51.280;7.236;2022-12-11T08:15:36;0.20;99.90
871;DHT22;422;51.280;7.236;2022-12-11T08:18:04;0.30;99.90
871;DHT22;422;51.280;7.236;2022-12-11T08:20:32;0.30;99.90
871;DHT22;422;51.280;7.236;2022-12-11T08:22:59;0.40;99.90
871;DHT22;422;51.280;7.236;2022-12-11T08:25:26;0.40;99.90
871;DHT22;422;51.280;7.236;2022-12-11T08:27:53;0.50;99.90
871;DHT22;422;51.280;7.236;2022-12-11T08:30:20;0.40;99.90
871;DHT22;422;51.280;7.236;2022-12-11T08:32:48;0.40;99.90
871;DHT22;422;51.280;7.236;2022-12-11T08:35:16;0.40;99.90
871;DHT22;422;51.280;7.236;2022-12-11T08:37:43;0.40;99.90
871;DHT22;422;51.280;7.236;2022-12-11T08:40:11;0.40;99.90
871;DHT22;422;51.280;7.236;2022-12-11T08:42:39;0.40;99.90
871;DHT22;422;51.280;7.236;2022-12-11T08:45:07;0.50;99.90
871;DHT22;422;51.280;7.236;2022-12-11T08:47:34;0.40;99.90
871;DHT22;422;51.280;7.236;2022-12-11T08:50:02;0.40;99.90
871;DHT22;422;51.280;7.236;2022-12-11T08:52:32;0.50;99.90
871;DHT22;422;51.280;7.236;2022-12-11T08:55:00;0.50;99.90
871;DHT22;422;51.280;7.236;2022-12-11T08:57:27;0.50;99.90
871;DHT22;422;51.280;7.236;2022-12-11T08:59:54;0.50;99.90
871;DHT22;422;51.280;7.236;2022-12-11T09:02:22;0.50;99.90
871;DHT22;422;51.280;7.236;2022-12-11T09:04:49;0.50;99.90
871;DHT22;422;51.280;7.236;2022-12-11T09:07:17;0.60;99.90
871;DHT22;422;51.280;7.236;2022-12-11T09:09:45;0.50;99.90
871;DHT22;422;51.280;7.236;2022-12-11T09:12:12;0.50;99.90
871;DHT22;422;51.280;7.236;2022-12-11T09:14:40;0.60;99.90
871;DHT22;422;51.280;7.236;2022-12-11T09:17:07;0.50;99.90
871;DHT22;422;51.280;7.236;2022-12-11T09:19:34;0.60;99.90
871;DHT22;422;51.280;7.236;2022-12-11T09:22:01;0.60;99.90
871;DHT22;422;51.280;7.236;2022-12-11T09:24:29;0.60;99.90
871;DHT22;422;51.280;7.236;2022-12-11T09:26:57;0.60;99.90
871;DHT22;422;51.280;7.236;2022-12-11T09:29:24;0.60;99.90
871;DHT22;422;51.280;7.236;2022-12-11T09:31:51;0.60;99.90
871;DHT22;422;51.280;7.236;2022-12-11T09:34:20;0.60;99.90
871;DHT22;422;51.280;7.236;2022-12-11T09:36:47;0.60;99.90
871;DHT22;422;51.280;7.236;2022-12-11T09:39:16;0.60;99.90
871;DHT22;422;51.280;7.236;2022-12-11T09:41:52;0.70;99.90
871;DHT22;422;51.280;7.236;2022-12-11T09:44:31;0.60;99.90
871;DHT22;422;51.280;7.236;2022-12-11T09:47:00;0.60;99.90
871;DHT22;422;51.280;7.236;2022-12-11T09:49:33;0.70;99.90
871;DHT22;422;51.280;7.236;2022-12-11T09:52:09;0.70;99.90
871;DHT22;422;51.280;7.236;2022-12-11T09:54:42;0.70;99.90
871;DHT22;422;51.280;7.236;2022-12-11T09:57:19;0.70;99.90
871;DHT22;422;51.280;7.236;2022-12-11T10:00:04;0.70;99.90
871;DHT22;422;51.280;7.236;2022-12-11T10:02:45;0.70;99.90
871;DHT22;422;51.280;7.236;2022-12-11T10:05:20;0.80;99.90
871;DHT22;422;51.280;7.236;2022-12-11T10:07:55;0.80;99.90
871;DHT22;422;51.280;7.236;2022-12-11T10:10:34;0.80;99.90
871;DHT22;422;51.280;7.236;2022-12-11T10:13:12;0.90;99.90
871;DHT22;422;51.280;7.236;2022-12-11T10:15:48;0.90;99.90
871;DHT22;422;51.280;7.236;2022-12-11T10:18:19;0.90;99.90
871;DHT22;422;51.280;7.236;2022-12-11T10:20:48;0.80;99.90
871;DHT22;422;51.280;7.236;2022-12-11T10:23:18;0.80;99.90
871;DHT22;422;51.280;7.236;2022-12-11T10:25:50;0.80;99.90
871;DHT22;422;51.280;7.236;2022-12-11T10:28:20;0.80;99.90
871;DHT22;422;51.280;7.236;2022-12-11T10:30:55;0.90;99.90
871;DHT22;422;51.280;7.236;2022-12-11T10:33:30;0.80;99.90
871;DHT22;422;51.280;7.236;2022-12-11T10:35:59;0.80;99.90
871;DHT22;422;51.280;7.236;2022-12-11T10:38:28;0.90;99.90
871;DHT22;422;51.280;7.236;2022-12-11T10:40:57;0.90;99.90
871;DHT22;422;51.280;7.236;2022-12-11T10:43:36;0.80;99.90
871;DHT22;422;51.280;7.236;2022-12-11T10:46:11;0.90;99.90
871;DHT22;422;51.280;7.236;2022-12-11T10:48:45;0.90;99.90
871;DHT22;422;51.280;7.236;2022-12-11T10:51:13;0.90;99.90
871;DHT22;422;51.280;7.236;2022-12-11T10:53:41;0.90;99.90
871;DHT22;422;51.280;7.236;2022-12-11T10:56:10;0.90;99.90
871;DHT22;422;51.280;7.236;2022-12-11T11:01:32;0.90;99.90
871;DHT22;422;51.280;7.236;2022-12-11T11:04:04;0.90;99.90
871;DHT22;422;51.280;7.236;2022-12-11T11:06:32;0.90;99.90
871;DHT22;422;51.280;7.236;2022-12-11T11:09:02;0.90;99.90
871;DHT22;422;51.280;7.236;2022-12-11T11:11:31;0.90;99.90
871;DHT22;422;51.280;7.236;2022-12-11T11:14:09;0.80;99.90
871;DHT22;422;51.280;7.236;2022-12-11T11:16:41;0.80;99.90
871;DHT22;422;51.280;7.236;2022-12-11T11:19:17;0.80;99.90
871;DHT22;422;51.280;7.236;2022-12-11T11:21:48;0.90;99.90
871;DHT22;422;51.280;7.236;2022-12-11T11:24:26;0.90;99.90
871;DHT22;422;51.280;7.236;2022-12-11T11:26:54;0.90;99.90
871;DHT22;422;51.280;7.236;2022-12-11T11:29:28;0.90;99.90
871;DHT22;422;51.280;7.236;2022-12-11T11:32:01;0.90;99.90
871;DHT22;422;51.280;7.236;2022-12-11T11:34:38;0.90;99.90
871;DHT22;422;51.280;7.236;2022-12-11T11:37:23;0.90;99.90
871;DHT22;422;51.280;7.236;2022-12-11T11:39:53;0.90;99.90
871;DHT22;422;51.280;7.236;2022-12-11T11:42:27;1.00;99.90
871;DHT22;422;51.280;7.236;2022-12-11T11:45:02;1.00;99.90
871;DHT22;422;51.280;7.236;2022-12-11T11:47:36;1.00;99.90
871;DHT22;422;51.280;7.236;2022-12-11T11:50:13;1.00;99.90
871;DHT22;422;51.280;7.236;2022-12-11T11:52:45;1.00;99.90
871;DHT22;422;51.280;7.236;2022-12-11T11:55:16;1.00;99.90
871;DHT22;422;51.280;7.236;2022-12-11T11:57:48;0.90;99.90
871;DHT22;422;51.280;7.236;2022-12-11T12:00:19;0.90;99.90
871;DHT22;422;51.280;7.236;2022-12-11T12:02:50;0.80;99.90
871;DHT22;422;51.280;7.236;2022-12-11T12:05:25;0.90;99.90
871;DHT22;422;51.280;7.236;2022-12-11T12:08:04;1.00;99.90
871;DHT22;422;51.280;7.236;2022-12-11T12:10:42;1.10;99.90
871;DHT22;422;51.280;7.236;2022-12-11T12:13:16;1.20;99.90
871;DHT22;422;51.280;7.236;2022-12-11T12:15:53;1.30;99.90
871;DHT22;422;51.280;7.236;2022-12-11T12:18:30;1.50;99.90
871;DHT22;422;51.280;7.236;2022-12-11T12:21:11;1.60;99.90
871;DHT22;422;51.280;7.236;2022-12-11T12:23:54;1.70;99.90
871;DHT22;422;51.280;7.236;2022-12-11T12:26:26;1.80;99.90
871;DHT22;422;51.280;7.236;2022-12-11T12:29:05;1.80;99.90
871;DHT22;422;51.280;7.236;2022-12-11T12:31:46;1.80;99.90
871;DHT22;422;51.280;7.236;2022-12-11T12:34:23;1.60;99.90
871;DHT22;422;51.280;7.236;2022-12-11T12:37:00;1.50;99.90
871;DHT22;422;51.280;7.236;2022-12-11T12:39:37;1.60;99.90
871;DHT22;422;51.280;7.236;2022-12-11T12:42:15;1.70;99.90
871;DHT22;422;51.280;7.236;2022-12-11T12:44:52;1.90;99.90
871;DHT22;422;51.280;7.236;2022-12-11T12:47:22;1.90;99.90
871;DHT22;422;51.280;7.236;2022-12-11T12:49:52;2.00;99.90
871;DHT22;422;51.280;7.236;2022-12-11T12:52:21;2.00;99.90
871;DHT22;422;51.280;7.236;2022-12-11T12:54:55;2.00;99.90
871;DHT22;422;51.280;7.236;2022-12-11T12:57:45;2.00;99.90
871;DHT22;422;51.280;7.236;2022-12-11T13:00:24;1.90;99.90
871;DHT22;422;51.280;7.236;2022-12-11T13:02:52;1.90;99.90
871;DHT22;422;51.280;7.236;2022-12-11T13:05:24;1.80;99.90
871;DHT22;422;51.280;7.236;2022-12-11T13:07:54;1.70;99.90
871;DHT22;422;51.280;7.236;2022-12-11T13:10:25;1.70;99.90
871;DHT22;422;51.280;7.236;2022-12-11T13:12:53;1.60;99.90
871;DHT22;422;51.280;7.236;2022-12-11T13:15:26;1.60;99.90
871;DHT22;422;51.280;7.236;2022-12-11T13:17:54;1.60;1.00
871;DHT22;422;51.280;7.236;2022-12-11T13:20:24;1.60;99.90
871;DHT22;422;51.280;7.236;2022-12-11T13:23:19;1.50;4.60
871;DHT22;422;51.280;7.236;2022-12-11T13:25:53;1.50;1.00
871;DHT22;422;51.280;7.236;2022-12-11T13:28:24;1.60;1.00
871;DHT22;422;51.280;7.236;2022-12-11T13:31:32;1.50;1.00
871;DHT22;422;51.280;7.236;2022-12-11T13:34:07;1.60;99.90
871;DHT22;422;51.280;7.236;2022-12-11T13:36:40;1.50;99.90
871;DHT22;422;51.280;7.236;2022-12-11T13:39:17;1.50;32.50
871;DHT22;422;51.280;7.236;2022-12-11T13:41:47;1.40;99.90
871;DHT22;422;51.280;7.236;2022-12-11T13:44:20;1.30;1.00
871;DHT22;422;51.280;7.236;2022-12-11T13:46:52;1.30;1.00
871;DHT22;422;51.280;7.236;2022-12-11T13:49:23;1.20;1.00
871;DHT22;422;51.280;7.236;2022-12-11T13:51:53;1.20;1.00
871;DHT22;422;51.280;7.236;2022-12-11T13:54:21;1.30;1.00
871;DHT22;422;51.280;7.236;2022-12-11T13:56:58;1.30;1.00
871;DHT22;422;51.280;7.236;2022-12-11T13:59:29;1.30;99.90
871;DHT22;422;51.280;7.236;2022-12-11T14:02:00;1.20;99.90
871;DHT22;422;51.280;7.236;2022-12-11T14:04:29;1.30;99.90
871;DHT22;422;51.280;7.236;2022-12-11T14:06:58;1.30;99.90
871;DHT22;422;51.280;7.236;2022-12-11T14:09:26;1.30;99.90
871;DHT22;422;51.280;7.236;2022-12-11T14:11:53;1.20;99.90
871;DHT22;422;51.280;7.236;2022-12-11T14:14:29;1.30;99.90
871;DHT22;422;51.280;7.236;2022-12-11T14:17:02;1.20;99.90
871;DHT22;422;51.280;7.236;2022-12-11T14:19:30;1.20;99.90
871;DHT22;422;51.280;7.236;2022-12-11T14:21:59;1.10;94.00
871;DHT22;422;51.280;7.236;2022-12-11T14:24:27;1.10;99.90
871;DHT22;422;51.280;7.236;2022-12-11T14:26:55;1.10;99.90
871;DHT22;422;51.280;7.236;2022-12-11T14:29:27;1.10;99.90
871;DHT22;422;51.280;7.236;2022-12-11T14:31:58;1.10;99.90
871;DHT22;422;51.280;7.236;2022-12-11T14:34:32;1.10;99.90
871;DHT22;422;51.280;7.236;2022-12-11T14:37:03;1.10;99.90
871;DHT22;422;51.280;7.236;2022-12-11T14:39:34;1.10;99.90
871;DHT22;422;51.280;7.236;2022-12-11T14:42:06;1.10;99.90
871;DHT22;422;51.280;7.236;2022-12-11T14:44:46;1.10;99.90
871;DHT22;422;51.280;7.236;2022-12-11T14:47:17;1.10;99.90
871;DHT22;422;51.280;7.236;2022-12-11T14:49:50;1.10;99.90
871;DHT22;422;51.280;7.236;2022-12-11T14:52:24;1.10;1.00
871;DHT22;422;51.280;7.236;2022-12-11T14:54:55;1.10;1.00
871;DHT22;422;51.280;7.236;2022-12-11T14:57:26;1.10;99.90
871;DHT22;422;51.280;7.236;2022-12-11T14:59:55;1.00;1.10
871;DHT22;422;51.280;7.236;2022-12-11T15:02:26;1.00;99.90
871;DHT22;422;51.280;7.236;2022-12-11T15:05:14;1.00;99.90
871;DHT22;422;51.280;7.236;2022-12-11T15:07:54;1.00;20.80
871;DHT22;422;51.280;7.236;2022-12-11T15:10:23;1.00;1.00
871;DHT22;422;51.280;7.236;2022-12-11T15:12:51;0.90;17.60
871;DHT22;422;51.280;7.236;2022-12-11T15:15:19;1.00;1.00
871;DHT22;422;51.280;7.236;2022-12-11T15:17:47;1.00;99.90
871;DHT22;422;51.280;7.236;2022-12-11T15:20:25;0.90;1.00
871;DHT22;422;51.280;7.236;2022-12-11T15:22:57;0.90;1.00
871;DHT22;422;51.280;7.236;2022-12-11T15:25:27;0.90;99.90
871;DHT22;422;51.280;7.236;2022-12-11T15:27:57;0.90;1.00
871;DHT22;422;51.280;7.236;2022-12-11T15:30:31;0.90;1.00
871;DHT22;422;51.280;7.236;2022-12-11T15:33:03;0.80;99.90
871;DHT22;422;51.280;7.236;2022-12-11T15:35:32;0.80;1.00
871;DHT22;422;51.280;7.236;2022-12-11T15:37:59;0.80;99.90
871;DHT22;422;51.280;7.236;2022-12-11T15:40:27;0.80;1.00
871;DHT22;422;51.280;7.236;2022-12-11T15:42:54;0.90;99.90
871;DHT22;422;51.280;7.236;2022-12-11T15:45:24;0.80;99.90
871;DHT22;422;51.280;7.236;2022-12-11T15:47:53;0.80;99.90
871;DHT22;422;51.280;7.236;2022-12-11T15:50:23;0.80;33.40
871;DHT22;422;51.280;7.236;2022-12-11T15:52:53;0.70;1.00
871;DHT22;422;51.280;7.236;2022-12-11T15:55:22;0.70;1.00
871;DHT22;422;51.280;7.236;2022-12-11T15:57:53;0.70;34.50
871;DHT22;422;51.280;7.236;2022-12-11T16:00:21;0.70;1.00
871;DHT22;422;51.280;7.236;2022-12-11T16:02:49;0.70;1.00
871;DHT22;422;51.280;7.236;2022-12-11T16:05:17;0.70;1.00
871;DHT22;422;51.280;7.236;2022-12-11T16:07:44;0.70;1.00
871;DHT22;422;51.280;7.236;2022-12-11T16:10:15;0.70;1.00
871;DHT22;422;51.280;7.236;2022-12-11T16:12:42;0.70;1.00
871;DHT22;422;51.280;7.236;2022-12-11T16:15:11;0.60;1.00
871;DHT22;422;51.280;7.236;2022-12-11T16:17:38;0.60;1.00
871;DHT22;422;51.280;7.236;2022-12-11T16:20:07;0.70;1.00
871;DHT22;422;51.280;7.236;2022-12-11T16:22:35;0.70;1.00
871;DHT22;422;51.280;7.236;2022-12-11T16:25:03;0.60;1.00
871;DHT22;422;51.280;7.236;2022-12-11T16:27:32;0.70;1.00
871;DHT22;422;51.280;7.236;2022-12-11T16:29:59;0.70;1.00
871;DHT22;422;51.280;7.236;2022-12-11T16:32:26;0.70;1.00
871;DHT22;422;51.280;7.236;2022-12-11T16:34:53;0.70;1.00
871;DHT22;422;51.280;7.236;2022-12-11T16:37:24;0.70;1.00
871;DHT22;422;51.280;7.236;2022-12-11T16:39:51;0.70;1.00
871;DHT22;422;51.280;7.236;2022-12-11T16:42:18;0.70;1.00
871;DHT22;422;51.280;7.236;2022-12-11T16:44:47;0.70;1.00
871;DHT22;422;51.280;7.236;2022-12-11T16:47:14;0.70;99.90
871;DHT22;422;51.280;7.236;2022-12-11T16:49:42;0.70;99.90
871;DHT22;422;51.280;7.236;2022-12-11T16:52:09;0.70;99.90
871;DHT22;422;51.280;7.236;2022-12-11T16:54:36;0.70;99.90
871;DHT22;422;51.280;7.236;2022-12-11T16:57:04;0.60;99.90
871;DHT22;422;51.280;7.236;2022-12-11T16:59:32;0.70;99.90
871;DHT22;422;51.280;7.236;2022-12-11T17:02:01;0.70;1.00
871;DHT22;422;51.280;7.236;2022-12-11T17:04:28;0.80;1.00
871;DHT22;422;51.280;7.236;2022-12-11T17:06:55;0.80;1.00
871;DHT22;422;51.280;7.236;2022-12-11T17:09:23;0.80;1.00
871;DHT22;422;51.280;7.236;2022-12-11T17:11:50;0.80;1.00